Time;durP1;ratioP1;P1;durP2;ratioP2;P2;SDS_P1;SDS_P2;PMS_P1;PMS_P2;Temp;Humidity;BMP_temperature;BMP_pressure;BME280_temperature;BME280_humidity;BME280_pressure;Samples;Min_cycle;Max_cycle;Signal;HPM_P1;HPM_P2
2022/04/05 00:01:00;;;;;;;3.67;3.13;;;6.80;6.70;;;;;;5067160;28;20216;-79
2022/04/05 00:03:30;;;;;;;3.93;3.47;;;6.70;5.70;;;;;;5062275;28;20451;-79
2022/04/05 00:05:58;;;;;;;4.10;3.70;;;6.70;8.90;;;;;;5056343;28;20452;-79
2022/04/05 00:08:26;;;;;;;5.37;3.60;;;6.70;8.90;;;;;;5065422;28;20861;-79
2022/04/05 00:10:55;;;;;;;4.63;3.93;;;6.70;9.70;;;;;;5059059;28;20549;-79
2022/04/05 00:13:23;;;;;;;4.40;4.00;;;6.90;9.60;;;;;;5059648;28;20478;-80
2022/04/05 00:15:53;;;;;;;4.23;3.83;;;6.90;10.80;;;;;;5054288;28;20488;-78
2022/04/05 00:18:21;;;;;;;4.70;3.83;;;6.80;11.30;;;;;;5060288;28;20839;-78
2022/04/05 00:20:49;;;;;;;5.77;3.83;;;6.80;11.20;;;;;;5066937;28;20454;-79
2022/04/05 00:23:17;;;;;;;6.00;3.90;;;6.40;10.10;;;;;;5060250;28;20473;-77
2022/04/05 00:25:46;;;;;;;5.00;4.50;;;6.60;13.20;;;;;;5056603;28;20452;-78
2022/04/05 00:28:14;;;;;;;5.30;4.13;;;6.20;14.40;;;;;;5055472;28;21024;-78
2022/04/05 00:30:42;;;;;;;3.20;2.90;;;6.20;15.80;;;;;;5063496;28;20249;-78
2022/04/05 00:33:12;;;;;;;7.00;4.30;;;6.30;17.30;;;;;;5067239;28;20455;-80
2022/04/05 00:35:41;;;;;;;6.00;3.73;;;6.30;19.00;;;;;;5055911;28;20490;-81
2022/04/05 00:38:09;;;;;;;5.13;3.83;;;6.40;19.00;;;;;;5062882;28;20459;-80
2022/04/05 00:40:38;;;;;;;3.90;3.50;;;6.60;19.10;;;;;;5060448;28;20470;-79
2022/04/05 00:43:06;;;;;;;4.00;3.60;;;6.60;16.30;;;;;;5061005;28;20443;-80
2022/04/05 00:45:35;;;;;;;5.00;3.90;;;7.00;19.10;;;;;;5061738;28;20204;-79
2022/04/05 00:48:04;;;;;;;3.47;3.17;;;7.00;15.50;;;;;;5062241;28;20451;-80
2022/04/05 00:50:37;;;;;;;4.40;3.70;;;7.10;15.80;;;;;;5064584;28;20501;-80
2022/04/05 00:53:07;;;;;;;5.57;4.10;;;7.30;14.50;;;;;;5057580;28;20466;-80
2022/04/05 00:55:36;;;;;;;3.97;3.23;;;7.10;13.80;;;;;;5063273;28;20447;-80
2022/04/05 00:58:05;;;;;;;6.13;3.70;;;7.00;14.00;;;;;;5065614;28;20500;-79
2022/04/05 01:00:34;;;;;;;5.40;3.87;;;7.00;14.20;;;;;;5065127;28;20458;-79
2022/04/05 01:03:02;;;;;;;7.73;4.00;;;6.80;14.00;;;;;;5065648;28;20516;-79
2022/04/05 01:05:31;;;;;;;4.07;3.60;;;6.60;16.10;;;;;;5067284;28;20453;-79
2022/04/05 01:08:03;;;;;;;4.30;3.90;;;6.80;15.40;;;;;;5065073;28;20483;-79
2022/04/05 01:10:31;;;;;;;3.90;3.43;;;6.90;16.30;;;;;;5058964;28;20443;-79
2022/04/05 01:12:59;;;;;;;5.13;3.22;;;6.60;18.80;;;;;;5063724;28;20443;-80
2022/04/05 01:15:27;;;;;;;5.77;4.93;;;6.50;19.60;;;;;;5065417;28;20750;-80
2022/04/05 01:17:56;;;;;;;5.53;4.97;;;6.60;19.80;;;;;;5061139;28;20471;-79
2022/04/05 01:20:24;;;;;;;3.28;2.83;;;6.50;19.10;;;;;;5064555;28;20189;-79
2022/04/05 01:22:54;;;;;;;3.63;3.03;;;6.60;18.10;;;;;;5061047;28;20216;-78
2022/04/05 01:25:24;;;;;;;3.53;3.23;;;6.60;17.30;;;;;;5064951;28;20212;-78
2022/04/05 01:27:53;;;;;;;5.75;3.80;;;6.70;19.80;;;;;;5068620;28;20447;-79
2022/04/05 01:30:21;;;;;;;3.67;3.35;;;6.60;20.30;;;;;;5066260;28;20253;-79
2022/04/05 01:32:50;;;;;;;6.90;3.80;;;6.80;20.80;;;;;;5065052;28;20223;-79
2022/04/05 01:35:18;;;;;;;4.03;3.03;;;6.80;19.00;;;;;;5063409;28;20476;-79
2022/04/05 01:37:46;;;;;;;4.90;4.07;;;6.70;19.30;;;;;;5063900;28;21299;-79
2022/04/05 01:40:15;;;;;;;5.20;4.70;;;6.70;20.70;;;;;;5060319;28;20725;-81
2022/04/05 01:42:44;;;;;;;5.03;3.80;;;6.70;20.20;;;;;;5058608;28;21010;-78
2022/04/05 01:45:13;;;;;;;4.93;3.50;;;6.70;19.90;;;;;;5067944;28;20466;-79
2022/04/05 01:47:41;;;;;;;3.70;2.63;;;6.70;19.90;;;;;;5061453;28;20462;-79
2022/04/05 01:50:10;;;;;;;3.93;3.27;;;6.50;19.30;;;;;;5066029;28;20450;-78
2022/04/05 01:52:38;;;;;;;6.30;5.73;;;6.40;20.00;;;;;;5064191;28;20509;-79
2022/04/05 01:55:07;;;;;;;3.70;3.40;;;6.60;21.90;;;;;;5064880;28;20455;-79
2022/04/05 01:57:36;;;;;;;4.20;3.70;;;6.60;20.90;;;;;;5063258;28;20481;-80
2022/04/05 02:00:14;;;;;;;4.20;3.60;;;6.50;22.50;;;;;;5068347;28;21086;-79
2022/04/05 02:02:42;;;;;;;5.82;3.17;;;6.60;21.50;;;;;;5062851;28;20541;-79
2022/04/05 02:05:11;;;;;;;4.70;3.40;;;6.50;22.10;;;;;;5058973;28;20196;-78
2022/04/05 02:07:40;;;;;;;4.67;3.70;;;6.40;23.20;;;;;;5057855;28;20466;-79
2022/04/05 02:10:09;;;;;;;4.03;3.67;;;6.40;27.10;;;;;;5063032;28;20520;-79
2022/04/05 02:12:37;;;;;;;4.30;3.80;;;6.60;27.20;;;;;;5065527;28;20512;-79
2022/04/05 02:15:08;;;;;;;4.00;3.20;;;6.70;29.10;;;;;;5060511;28;21328;-80
2022/04/05 02:17:37;;;;;;;4.85;3.30;;;6.80;26.90;;;;;;5064209;28;20529;-79
2022/04/05 02:20:06;;;;;;;8.20;3.50;;;6.60;28.90;;;;;;5059295;28;20193;-79
2022/04/05 02:22:34;;;;;;;5.97;3.43;;;6.70;28.50;;;;;;5064024;28;20466;-78
2022/04/05 02:25:03;;;;;;;5.50;3.33;;;6.80;29.50;;;;;;5064746;28;20462;-78
2022/04/05 02:27:31;;;;;;;4.70;3.53;;;6.80;28.70;;;;;;5063979;28;20449;-79
2022/04/05 02:30:00;;;;;;;6.40;3.67;;;7.10;28.30;;;;;;5063915;28;20443;-80
2022/04/05 02:32:29;;;;;;;4.50;3.10;;;6.80;28.50;;;;;;5067148;28;20481;-79
2022/04/05 02:34:57;;;;;;;4.17;3.77;;;6.90;29.30;;;;;;5062545;28;20461;-79
2022/04/05 02:37:26;;;;;;;8.73;4.13;;;6.90;28.20;;;;;;5056914;28;20466;-79
2022/04/05 02:39:54;;;;;;;5.50;3.77;;;6.80;27.80;;;;;;5056565;28;21522;-80
2022/04/05 02:42:22;;;;;;;3.40;2.97;;;6.80;29.30;;;;;;5057986;28;20475;-80
2022/04/05 02:44:50;;;;;;;5.13;3.17;;;6.90;28.10;;;;;;5066109;28;20455;-79
2022/04/05 02:47:18;;;;;;;4.80;4.40;;;6.80;28.10;;;;;;5069896;28;20954;-80
2022/04/05 02:49:48;;;;;;;6.87;3.20;;;6.80;29.40;;;;;;5062820;28;20447;-78
2022/04/05 02:52:16;;;;;;;3.70;3.20;;;6.60;28.70;;;;;;5059878;28;20467;-79
2022/04/05 02:54:44;;;;;;;5.00;3.03;;;6.60;30.30;;;;;;5059669;28;20458;-79
2022/04/05 02:57:15;;;;;;;5.03;3.70;;;6.60;31.70;;;;;;5064966;28;20475;-79
2022/04/05 02:59:43;;;;;;;3.38;3.08;;;6.50;45.60;;;;;;5064403;28;20459;-79
2022/04/05 03:02:11;;;;;;;4.90;3.30;;;6.60;31.00;;;;;;5063600;28;20220;-79
2022/04/05 03:04:39;;;;;;;4.10;3.53;;;6.80;32.30;;;;;;5061913;28;20457;-77
2022/04/05 03:07:09;;;;;;;3.33;2.97;;;6.90;45.80;;;;;;5059066;28;20458;-79
2022/04/05 03:09:37;;;;;;;4.93;3.47;;;7.00;31.10;;;;;;5063676;28;20521;-79
2022/04/05 03:12:06;;;;;;;4.77;3.33;;;7.00;30.80;;;;;;5060620;28;20484;-79
2022/04/05 03:14:34;;;;;;;3.17;2.83;;;7.10;29.10;;;;;;5063483;28;20458;-78
2022/04/05 03:17:02;;;;;;;4.27;3.43;;;6.90;28.70;;;;;;5062705;28;20457;-78
2022/04/05 03:19:31;;;;;;;6.00;4.30;;;6.90;29.50;;;;;;5063111;28;20458;-79
2022/04/05 03:21:59;;;;;;;9.03;4.00;;;6.70;29.00;;;;;;5068458;28;20474;-80
2022/04/05 03:24:29;;;;;;;4.33;3.20;;;6.70;29.50;;;;;;5064215;28;20479;-79
2022/04/05 03:26:57;;;;;;;3.90;3.60;;;6.80;28.80;;;;;;5064437;28;20439;-79
2022/04/05 03:29:25;;;;;;;5.07;3.70;;;6.90;29.60;;;;;;5060716;28;20460;-79
2022/04/05 03:31:53;;;;;;;5.80;4.27;;;7.00;28.10;;;;;;5064944;28;20481;-80
2022/04/05 03:34:23;;;;;;;6.00;3.80;;;7.00;27.30;;;;;;5064385;28;20459;-78
2022/04/05 03:36:51;;;;;;;3.90;2.90;;;6.90;28.90;;;;;;5064571;28;20493;-79
2022/04/05 03:39:19;;;;;;;5.20;4.00;;;7.00;27.70;;;;;;5067552;28;20883;-79
2022/04/05 03:41:49;;;;;;;3.87;3.57;;;6.90;28.10;;;;;;5065161;28;20485;-79
2022/04/05 03:44:18;;;;;;;4.50;3.67;;;7.00;28.10;;;;;;5060544;28;21001;-79
2022/04/05 03:46:46;;;;;;;5.17;2.87;;;7.30;28.50;;;;;;5062199;28;20481;-81
2022/04/05 03:49:14;;;;;;;4.40;4.00;;;7.50;25.50;;;;;;5064187;28;20458;-79
2022/04/05 03:51:46;;;;;;;6.50;3.67;;;7.20;26.10;;;;;;5058062;28;20517;-79
2022/04/05 03:54:14;;;;;;;3.90;3.50;;;7.20;24.50;;;;;;5059475;28;20481;-79
2022/04/05 03:56:42;;;;;;;3.93;3.63;;;7.20;24.90;;;;;;5054870;28;20471;-79
2022/04/05 03:59:13;;;;;;;4.50;3.73;;;7.20;24.20;;;;;;5063199;28;21073;-80
2022/04/05 04:01:41;;;;;;;4.00;3.23;;;7.10;24.20;;;;;;5061057;28;20482;-78
2022/04/05 04:04:09;;;;;;;4.30;3.13;;;7.10;23.70;;;;;;5057733;28;20543;-79
2022/04/05 04:06:37;;;;;;;6.97;4.37;;;6.80;24.40;;;;;;5055457;28;21017;-79
2022/04/05 04:09:06;;;;;;;3.70;3.13;;;7.00;25.60;;;;;;5057342;28;20448;-79
2022/04/05 04:11:34;;;;;;;3.30;3.00;;;6.80;23.70;;;;;;5055881;28;20507;-79
2022/04/05 04:14:02;;;;;;;3.83;3.53;;;6.80;24.40;;;;;;5065236;28;20454;-79
2022/04/05 04:16:32;;;;;;;3.90;3.00;;;6.70;24.60;;;;;;5063087;28;20443;-79
2022/04/05 04:19:00;;;;;;;5.90;3.97;;;6.70;25.30;;;;;;5060608;28;20228;-79
2022/04/05 04:21:29;;;;;;;6.53;3.50;;;6.90;26.20;;;;;;5062542;28;21058;-79
2022/04/05 04:23:57;;;;;;;4.90;3.80;;;6.90;25.20;;;;;;5056839;28;20521;-79
2022/04/05 04:26:25;;;;;;;4.93;3.30;;;7.10;25.40;;;;;;5059732;28;20459;-80
2022/04/05 04:28:59;;;;;;;5.63;3.10;;;6.80;26.60;;;;;;5061544;28;20561;-79
2022/04/05 04:31:27;;;;;;;2.80;2.57;;;7.10;29.60;;;;;;5060483;28;20471;-78
2022/04/05 04:33:57;;;;;;;4.30;3.87;;;7.00;32.20;;;;;;5054660;28;20454;-77
2022/04/05 04:36:26;;;;;;;4.50;4.10;;;7.10;32.00;;;;;;5056657;28;20646;-78
2022/04/05 04:38:55;;;;;;;5.60;3.88;;;7.10;35.90;;;;;;5059936;28;20448;-79
2022/04/05 04:41:24;;;;;;;4.83;3.87;;;7.10;35.20;;;;;;5062713;28;20228;-78
2022/04/05 04:43:53;;;;;;;4.43;3.20;;;7.20;37.00;;;;;;5062733;28;20455;-78
2022/04/05 04:46:21;;;;;;;5.50;4.00;;;7.20;37.70;;;;;;5066861;28;20455;-78
2022/04/05 04:48:50;;;;;;;3.90;3.20;;;7.00;44.80;;;;;;5059944;28;20462;-78
2022/04/05 04:51:19;;;;;;;7.10;4.13;;;7.10;43.10;;;;;;5058254;28;20541;-78
2022/04/05 04:53:47;;;;;;;3.63;3.33;;;7.00;44.20;;;;;;5057007;28;20439;-79
2022/04/05 04:56:15;;;;;;;4.97;4.17;;;7.10;48.10;;;;;;5064519;28;20455;-79
2022/04/05 04:58:44;;;;;;;3.73;2.87;;;7.20;42.90;;;;;;5062302;28;21030;-79
2022/04/05 05:01:12;;;;;;;4.35;3.15;;;7.40;42.30;;;;;;5063714;28;20492;-83
2022/04/05 05:03:41;;;;;;;4.10;2.70;;;7.10;43.50;;;;;;5058733;28;20290;-78
2022/04/05 05:06:10;;;;;;;4.33;3.20;;;7.00;39.60;;;;;;5060167;28;20598;-79
2022/04/05 05:08:40;;;;;;;4.00;3.00;;;7.00;41.10;;;;;;5057612;28;20439;-79
2022/04/05 05:11:08;;;;;;;5.50;3.42;;;7.00;39.00;;;;;;5058266;28;20487;-79
2022/04/05 05:13:36;;;;;;;3.43;2.90;;;6.90;38.70;;;;;;5062590;28;20204;-79
2022/04/05 05:16:05;;;;;;;4.00;3.60;;;6.70;36.40;;;;;;5056735;28;20458;-79
2022/04/05 05:18:33;;;;;;;4.70;4.20;;;6.80;41.50;;;;;;5062355;28;20471;-78
2022/04/05 05:21:02;;;;;;;4.13;3.40;;;6.70;45.10;;;;;;5057693;28;21055;-78
2022/04/05 05:23:31;;;;;;;4.93;3.60;;;7.10;42.00;;;;;;5064503;28;20451;-78
2022/04/05 05:26:00;;;;;;;3.57;2.90;;;6.90;43.30;;;;;;5064626;28;20215;-78
2022/04/05 05:28:28;;;;;;;3.42;3.10;;;6.70;41.80;;;;;;5060775;28;20451;-80
2022/04/05 05:30:57;;;;;;;4.10;3.07;;;6.80;41.80;;;;;;5061444;28;20216;-78
2022/04/05 05:33:25;;;;;;;4.20;3.60;;;6.80;44.50;;;;;;5063808;28;20451;-78
2022/04/05 05:35:54;;;;;;;3.80;3.40;;;6.80;44.00;;;;;;5060641;28;20465;-78
2022/04/05 05:38:22;;;;;;;5.07;3.00;;;6.80;49.30;;;;;;5070389;28;20284;-78
2022/04/05 05:40:50;;;;;;;3.20;2.90;;;6.90;50.00;;;;;;5058660;28;20466;-78
2022/04/05 05:43:22;;;;;;;4.97;3.13;;;6.80;63.70;;;;;;5061130;28;20512;-78
2022/04/05 05:45:51;;;;;;;5.10;3.40;;;6.90;52.40;;;;;;5062106;28;20489;-78
2022/04/05 05:48:20;;;;;;;3.80;2.73;;;6.90;53.20;;;;;;5055593;28;20463;-77
2022/04/05 05:50:49;;;;;;;3.67;3.08;;;7.00;60.70;;;;;;5064228;28;20462;-76
2022/04/05 05:53:18;;;;;;;7.00;3.10;;;6.90;62.70;;;;;;5055351;28;20196;-78
2022/04/05 05:55:48;;;;;;;3.97;3.30;;;6.90;90.00;;;;;;5064448;28;20918;-78
2022/04/05 05:58:16;;;;;;;3.73;2.83;;;6.90;72.70;;;;;;5058020;28;20459;-78
2022/04/05 06:00:45;;;;;;;2.63;2.40;;;7.30;74.70;;;;;;5059564;28;20470;-79
2022/04/05 06:03:13;;;;;;;7.00;3.30;;;6.80;91.10;;;;;;5059949;28;20193;-77
2022/04/05 06:05:43;;;;;;;6.60;3.67;;;6.70;95.60;;;;;;5063488;28;20534;-78
2022/04/05 06:08:11;;;;;;;3.78;3.40;;;6.60;99.90;;;;;;5064640;28;20447;-79
2022/04/05 06:10:40;;;;;;;4.97;4.35;;;6.40;99.90;;;;;;5065391;28;20196;-78
2022/04/05 06:13:08;;;;;;;4.50;3.17;;;6.60;99.90;;;;;;5061141;28;20598;-78
2022/04/05 06:15:37;;;;;;;3.27;2.70;;;6.50;99.90;;;;;;5066971;28;21001;-79
2022/04/05 06:18:07;;;;;;;4.70;3.00;;;6.40;99.90;;;;;;5062644;28;20503;-78
2022/04/05 06:20:35;;;;;;;3.90;2.75;;;6.50;99.90;;;;;;5055105;28;20462;-79
2022/04/05 06:23:05;;;;;;;3.83;3.53;;;6.40;99.90;;;;;;5068951;28;20220;-80
2022/04/05 06:25:35;;;;;;;5.10;3.00;;;6.40;99.90;;;;;;5064231;28;20231;-79
2022/04/05 06:28:05;;;;;;;4.22;3.72;;;6.50;99.90;;;;;;5065089;28;20458;-79
2022/04/05 06:30:36;;;;;;;4.93;3.20;;;6.20;99.90;;;;;;5063188;28;20474;-78
2022/04/05 06:33:11;;;;;;;4.97;3.33;;;6.30;99.90;;;;;;5064179;28;20205;-79
2022/04/05 06:35:41;;;;;;;4.57;3.53;;;6.60;99.90;;;;;;5069648;28;20457;-78
2022/04/05 06:38:09;;;;;;;4.18;3.10;;;6.40;99.90;;;;;;5060631;28;20811;-79
2022/04/05 06:40:38;;;;;;;3.20;2.90;;;6.30;99.90;;;;;;5065601;28;20284;-77
2022/04/05 06:43:06;;;;;;;3.33;3.00;;;6.50;99.90;;;;;;5068823;28;20206;-79
2022/04/05 06:45:35;;;;;;;3.33;3.03;;;6.40;99.90;;;;;;5064183;28;20284;-77
2022/04/05 06:48:05;;;;;;;5.35;3.92;;;6.40;99.90;;;;;;5066714;28;20205;-77
2022/04/05 06:50:35;;;;;;;8.77;3.78;;;6.30;99.90;;;;;;5064552;28;20270;-79
2022/04/05 06:53:04;;;;;;;5.38;3.22;;;6.30;99.90;;;;;;5066442;28;20243;-78
2022/04/05 06:55:33;;;;;;;3.75;3.35;;;6.30;99.90;;;;;;5065081;28;20196;-79
2022/04/05 06:58:02;;;;;;;4.95;2.90;;;6.60;99.90;;;;;;5066352;28;20193;-80
2022/04/05 07:00:30;;;;;;;6.40;3.90;;;6.50;99.90;;;;;;5063510;28;20221;-78
2022/04/05 07:02:58;;;;;;;4.47;3.83;;;6.50;99.90;;;;;;5061031;28;20246;-79
2022/04/05 07:05:27;;;;;;;7.75;3.67;;;6.60;99.90;;;;;;5067548;28;20454;-79
2022/04/05 07:07:57;;;;;;;3.85;3.22;;;6.80;99.90;;;;;;5069467;28;20196;-78
2022/04/05 07:10:26;;;;;;;9.20;5.35;;;6.90;99.90;;;;;;5066425;28;20655;-80
2022/04/05 07:12:54;;;;;;;6.35;4.15;;;7.10;99.90;;;;;;5067756;28;20306;-80
2022/04/05 07:15:22;;;;;;;4.95;3.17;;;7.10;99.90;;;;;;5063530;28;20204;-78
2022/04/05 07:17:51;;;;;;;7.10;3.47;;;7.10;99.90;;;;;;5064412;28;20219;-77
2022/04/05 07:20:35;;;;;;;3.80;3.00;;;6.90;99.90;;;;;;5068812;28;20470;-79
2022/04/05 07:23:05;;;;;;;5.45;3.10;;;7.00;99.90;;;;;;5066635;28;20274;-78
2022/04/05 07:25:35;;;;;;;4.27;2.80;;;7.20;99.90;;;;;;5065887;28;20217;-79
2022/04/05 07:28:04;;;;;;;3.70;3.40;;;6.90;99.90;;;;;;5065950;28;20458;-79
2022/04/05 07:30:33;;;;;;;6.03;2.77;;;6.90;99.90;;;;;;5063528;28;20447;-79
2022/04/05 07:33:01;;;;;;;5.20;3.47;;;7.00;99.90;;;;;;5070710;28;20470;-78
2022/04/05 07:35:29;;;;;;;6.70;4.03;;;7.10;99.90;;;;;;5061699;28;20459;-78
2022/04/05 07:37:58;;;;;;;4.70;3.33;;;7.20;99.90;;;;;;5065003;28;20455;-77
2022/04/05 07:40:47;;;;;;;4.40;2.75;;;7.30;99.90;;;;;;5064427;28;21009;-77
2022/04/05 07:43:16;;;;;;;7.17;3.60;;;7.40;99.90;;;;;;5059343;28;20193;-77
2022/04/05 07:45:48;;;;;;;4.13;3.33;;;7.50;99.90;;;;;;5060556;28;20450;-79
2022/04/05 07:48:17;;;;;;;3.93;3.03;;;7.50;99.90;;;;;;5060741;28;20454;-78
2022/04/05 07:50:45;;;;;;;4.80;2.70;;;7.60;99.90;;;;;;5061308;28;20955;-77
2022/04/05 07:53:14;;;;;;;3.57;2.67;;;7.50;99.90;;;;;;5061636;28;20505;-77
2022/04/05 07:55:44;;;;;;;2.83;2.57;;;7.70;99.90;;;;;;5065603;28;21301;-77
2022/04/05 07:58:12;;;;;;;4.50;2.50;;;7.70;99.90;;;;;;5064776;28;20599;-78
2022/04/05 08:00:40;;;;;;;3.17;2.20;;;7.70;99.90;;;;;;5062134;28;20544;-80
2022/04/05 08:03:09;;;;;;;4.40;3.10;;;7.70;99.90;;;;;;5062430;28;20825;-79
2022/04/05 08:05:37;;;;;;;4.40;2.63;;;7.80;99.90;;;;;;5060108;28;20525;-78
2022/04/05 08:08:06;;;;;;;3.93;2.97;;;7.80;99.90;;;;;;5063903;28;20446;-79
2022/04/05 08:10:34;;;;;;;4.50;2.93;;;7.90;99.90;;;;;;5063038;28;20470;-78
2022/04/05 08:13:03;;;;;;;2.70;2.50;;;7.70;99.90;;;;;;5061362;28;20543;-78
2022/04/05 08:15:32;;;;;;;3.50;2.30;;;7.60;99.90;;;;;;5060655;28;20455;-78
2022/04/05 08:18:00;;;;;;;3.83;2.80;;;7.50;99.90;;;;;;5060107;28;20455;-79
2022/04/05 08:20:29;;;;;;;7.13;3.13;;;7.40;99.90;;;;;;5061214;28;20497;-79
2022/04/05 08:22:57;;;;;;;4.53;3.10;;;7.40;99.90;;;;;;5067562;28;20461;-78
2022/04/05 08:25:25;;;;;;;4.67;2.20;;;7.40;99.90;;;;;;5063746;28;20459;-79
2022/04/05 08:27:53;;;;;;;6.50;3.33;;;7.40;99.90;;;;;;5060037;28;20938;-79
2022/04/05 08:30:23;;;;;;;4.90;3.13;;;7.50;99.90;;;;;;5060132;28;20492;-77
2022/04/05 08:32:51;;;;;;;3.90;3.07;;;7.60;99.90;;;;;;5064276;28;20471;-79
2022/04/05 08:35:22;;;;;;;3.60;3.03;;;7.80;99.90;;;;;;5065288;28;20459;-78
2022/04/05 08:37:53;;;;;;;2.87;2.30;;;7.90;99.90;;;;;;5066419;28;20463;-79
2022/04/05 08:40:23;;;;;;;2.53;2.33;;;7.90;99.90;;;;;;5064791;28;20506;-78
2022/04/05 08:42:54;;;;;;;3.10;2.70;;;8.00;99.90;;;;;;5064512;28;20467;-78
2022/04/05 08:45:25;;;;;;;4.80;3.13;;;7.90;99.90;;;;;;5059135;28;20451;-78
2022/04/05 08:47:56;;;;;;;2.50;2.30;;;8.00;99.90;;;;;;5058430;28;20446;-78
2022/04/05 08:50:26;;;;;;;3.27;2.40;;;7.90;99.90;;;;;;5070365;28;20463;-79
2022/04/05 08:52:55;;;;;;;3.13;2.10;;;8.40;99.90;;;;;;5057880;28;20477;-78
2022/04/05 08:55:24;;;;;;;5.13;2.87;;;8.10;99.90;;;;;;5059279;28;20464;-79
2022/04/05 08:57:52;;;;;;;3.17;2.80;;;8.20;99.90;;;;;;5060362;28;20448;-79
2022/04/05 09:00:22;;;;;;;2.20;2.00;;;8.20;99.90;;;;;;5063117;28;20444;-80
2022/04/05 09:03:00;;;;;;;3.20;2.90;;;8.10;99.90;;;;;;5068096;28;20497;-76
2022/04/05 09:05:30;;;;;;;4.73;2.40;;;8.20;99.90;;;;;;5066649;28;20449;-78
2022/04/05 09:08:22;;;;;;;3.50;2.70;;;8.40;99.90;;;;;;5060757;28;20468;-79
2022/04/05 09:10:53;;;;;;;3.37;2.77;;;8.30;99.90;;;;;;5063014;28;20440;-79
2022/04/05 09:13:25;;;;;;;5.70;2.57;;;8.30;99.90;;;;;;5061496;28;20464;-80
2022/04/05 09:15:58;;;;;;;4.37;2.50;;;8.30;99.90;;;;;;5061587;28;21009;-79
2022/04/05 09:18:35;;;;;;;3.60;2.80;;;8.20;99.90;;;;;;5064905;28;20451;-79
2022/04/05 09:21:05;;;;;;;8.10;2.50;;;8.30;99.90;;;;;;5058985;28;20492;-78
2022/04/05 09:23:34;;;;;;;4.10;3.03;;;8.20;99.90;;;;;;5065678;28;20539;-79
2022/04/05 09:26:05;;;;;;;2.93;2.60;;;8.30;99.90;;;;;;5057394;28;20462;-79
2022/04/05 09:28:37;;;;;;;3.00;2.70;;;8.50;99.90;;;;;;5066066;28;20842;-78
2022/04/05 09:31:08;;;;;;;4.60;2.50;;;8.50;99.90;;;;;;5063314;28;20503;-80
2022/04/05 09:33:40;;;;;;;9.83;2.10;;;8.30;99.90;;;;;;5067678;28;20463;-80
2022/04/05 09:36:14;;;;;;;4.97;2.50;;;8.10;99.90;;;;;;5067602;28;20447;-78
2022/04/05 09:38:45;;;;;;;4.97;2.50;;;8.30;99.90;;;;;;5059292;28;21330;-78
2022/04/05 09:41:20;;;;;;;2.93;2.17;;;8.50;99.90;;;;;;5069335;28;22873;-79
2022/04/05 09:43:56;;;;;;;3.73;2.40;;;8.30;99.90;;;;;;5064994;28;20496;-78
2022/04/05 09:46:25;;;;;;;4.20;2.57;;;8.40;99.90;;;;;;5066044;28;20455;-79
2022/04/05 09:49:05;;;;;;;4.40;2.77;;;8.40;99.90;;;;;;5072553;28;20533;-78
2022/04/05 09:51:38;;;;;;;3.50;2.07;;;8.50;99.90;;;;;;5068851;28;20490;-79
2022/04/05 09:54:07;;;;;;;4.67;2.83;;;8.50;99.90;;;;;;5069500;28;21068;-79
2022/04/05 09:56:38;;;;;;;4.83;2.37;;;8.60;99.90;;;;;;5066707;28;20456;-78
2022/04/05 09:59:16;;;;;;;3.07;2.53;;;8.40;99.90;;;;;;5070457;28;20448;-79
2022/04/05 10:01:45;;;;;;;3.10;2.30;;;8.30;99.90;;;;;;5058063;28;20565;-79
2022/04/05 10:04:16;;;;;;;5.00;2.53;;;8.30;99.90;;;;;;5064403;28;20465;-80
2022/04/05 10:06:47;;;;;;;5.63;2.77;;;8.50;99.90;;;;;;5064339;28;20464;-79
2022/04/05 10:09:17;;;;;;;2.57;2.17;;;8.50;99.90;;;;;;5068083;28;20497;-80
2022/04/05 10:11:47;;;;;;;4.93;3.07;;;8.70;99.90;;;;;;5066603;28;20463;-81
2022/04/05 10:14:20;;;;;;;3.83;2.30;;;9.00;99.90;;;;;;5062194;28;20464;-78
2022/04/05 10:16:50;;;;;;;3.70;2.30;;;8.90;99.90;;;;;;5065648;28;20543;-79
2022/04/05 10:19:22;;;;;;;3.67;2.50;;;9.00;99.90;;;;;;5071154;28;20456;-79
2022/04/05 10:21:50;;;;;;;2.43;1.90;;;8.90;99.90;;;;;;5058904;28;20496;-80
2022/04/05 10:24:19;;;;;;;3.50;2.77;;;9.00;99.90;;;;;;5065324;28;20935;-79
2022/04/05 10:26:49;;;;;;;3.40;2.23;;;9.10;99.90;;;;;;5064333;28;20967;-80
2022/04/05 10:29:19;;;;;;;2.13;1.93;;;9.20;99.90;;;;;;5066404;28;20505;-80
2022/04/05 10:31:55;;;;;;;4.80;2.33;;;9.30;99.90;;;;;;5063810;28;21221;-79
2022/04/05 10:34:28;;;;;;;2.23;2.00;;;9.10;99.90;;;;;;5059757;28;21191;-80
2022/04/05 10:37:13;;;;;;;2.57;2.37;;;9.00;99.90;;;;;;5072038;28;20448;-79
2022/04/05 10:39:41;;;;;;;2.90;2.60;;;8.80;99.90;;;;;;5063972;28;20795;-80
2022/04/05 10:42:24;;;;;;;3.20;2.17;;;8.80;1.00;;;;;;5065774;28;21021;-78
2022/04/05 10:44:55;;;;;;;2.43;2.20;;;8.80;1.00;;;;;;5069692;28;20467;-79
2022/04/05 10:47:23;;;;;;;2.10;1.80;;;8.90;1.00;;;;;;5066684;28;20454;-80
2022/04/05 10:50:20;;;;;;;2.30;2.10;;;9.00;1.00;;;;;;5065500;28;20457;-81
2022/04/05 10:52:49;;;;;;;2.23;1.80;;;9.20;1.00;;;;;;5060790;28;20470;-77
2022/04/05 10:55:20;;;;;;;3.13;2.20;;;9.10;1.00;;;;;;5058728;28;20912;-80
2022/04/05 10:57:49;;;;;;;3.13;1.97;;;9.10;1.00;;;;;;5059841;28;20489;-79
2022/04/05 11:00:25;;;;;;;2.43;2.07;;;9.10;1.00;;;;;;5064780;28;20448;-81
2022/04/05 11:03:05;;;;;;;3.87;2.60;;;9.00;1.00;;;;;;5063597;28;20841;-80
2022/04/05 11:05:41;;;;;;;2.70;2.23;;;9.00;1.00;;;;;;5066977;28;20455;-79
2022/04/05 11:08:16;;;;;;;2.53;2.10;;;9.20;1.00;;;;;;5062667;28;20492;-80
2022/04/05 11:10:46;;;;;;;1.80;1.70;;;9.10;1.00;;;;;;5069323;28;20453;-79
2022/04/05 11:13:20;;;;;;;2.20;1.90;;;9.10;1.00;;;;;;5053920;28;20569;-81
2022/04/05 11:15:53;;;;;;;4.60;2.20;;;9.00;1.00;;;;;;5056841;28;20447;-77
2022/04/05 11:18:24;;;;;;;3.47;2.13;;;9.00;1.00;;;;;;5062740;28;20493;-78
2022/04/05 11:20:57;;;;;;;2.93;2.00;;;9.00;1.00;;;;;;5062767;28;20461;-80
2022/04/05 11:23:49;;;;;;;3.43;2.17;;;8.80;1.00;;;;;;5064972;28;20472;-79
2022/04/05 11:26:26;;;;;;;2.33;2.13;;;8.80;1.00;;;;;;5064365;28;20482;-79
2022/04/05 11:28:55;;;;;;;1.93;1.67;;;8.90;1.00;;;;;;5061030;28;20457;-79
2022/04/05 11:31:35;;;;;;;2.20;1.87;;;9.00;1.00;;;;;;5059725;28;20472;-79
2022/04/05 11:34:34;;;;;;;2.10;2.00;;;8.80;1.00;;;;;;5065002;28;20466;-81
2022/04/05 11:37:05;;;;;;;2.50;1.67;;;8.80;1.00;;;;;;5067154;28;20454;-78
2022/04/05 11:39:38;;;;;;;1.63;1.53;;;8.90;1.00;;;;;;5063087;28;20467;-78
2022/04/05 11:42:06;;;;;;;2.30;1.80;;;9.20;1.00;;;;;;5063804;28;21023;-79
2022/04/05 11:44:35;;;;;;;2.00;1.60;;;8.90;1.00;;;;;;5063195;28;20463;-80
2022/04/05 11:47:04;;;;;;;2.47;1.70;;;9.00;1.00;;;;;;5066839;28;20464;-79
2022/04/05 11:49:42;;;;;;;2.63;1.73;;;9.10;1.00;;;;;;5066260;28;20455;-79
2022/04/05 11:52:12;;;;;;;1.90;1.73;;;9.10;1.00;;;;;;5062342;28;20475;-76
2022/04/05 11:57:22;;;;;;;2.90;2.00;;;9.10;1.00;;;;;;5066818;28;20951;-80
2022/04/05 12:00:05;;;;;;;2.37;1.60;;;9.30;99.90;;;;;;5063360;28;20465;-80
2022/04/05 12:02:34;;;;;;;2.67;2.20;;;9.50;99.90;;;;;;5067364;28;20482;-80
2022/04/05 12:05:02;;;;;;;2.93;1.97;;;9.40;99.90;;;;;;5067750;28;20548;-81
2022/04/05 12:07:35;;;;;;;3.20;2.20;;;9.30;99.90;;;;;;5066651;28;21054;-81
2022/04/05 12:10:04;;;;;;;2.80;2.23;;;9.40;99.90;;;;;;5062467;28;20449;-81
2022/04/05 12:12:33;;;;;;;3.40;2.33;;;9.30;99.90;;;;;;5069778;28;20534;-80
2022/04/05 12:15:14;;;;;;;2.97;2.67;;;9.30;99.90;;;;;;5079247;28;20456;-82
2022/04/05 12:17:42;;;;;;;2.60;2.33;;;9.30;1.00;;;;;;5076919;28;20453;-80
2022/04/05 12:20:11;;;;;;;2.57;2.30;;;9.50;1.00;;;;;;5070065;28;20538;-80
2022/04/05 12:22:41;;;;;;;2.90;2.50;;;9.60;99.90;;;;;;5066781;28;20470;-83
2022/04/05 12:25:10;;;;;;;2.60;1.93;;;9.20;1.00;;;;;;5064954;28;20521;-81
2022/04/05 12:27:38;;;;;;;3.23;2.30;;;9.70;1.00;;;;;;5064959;28;20466;-80
2022/04/05 12:30:09;;;;;;;3.37;2.07;;;9.90;1.00;;;;;;5070440;28;20456;-80
2022/04/05 12:32:39;;;;;;;2.80;1.93;;;10.00;99.90;;;;;;5065525;28;20562;-80
2022/04/05 12:35:09;;;;;;;1.60;1.50;;;9.70;99.90;;;;;;5056967;28;20455;-81
2022/04/05 12:37:37;;;;;;;3.57;2.30;;;10.20;99.90;;;;;;5063894;28;20460;-81
2022/04/05 12:40:22;;;;;;;1.67;1.57;;;10.10;99.90;;;;;;5069592;28;20450;-80
2022/04/05 12:42:51;;;;;;;3.07;2.23;;;10.10;99.90;;;;;;5073542;28;20897;-81
2022/04/05 12:45:27;;;;;;;2.60;1.80;;;10.20;99.90;;;;;;5069603;28;20575;-81
2022/04/05 12:47:55;;;;;;;2.20;1.70;;;10.10;99.90;;;;;;5064443;28;20452;-80
2022/04/05 12:50:24;;;;;;;3.30;2.30;;;10.10;99.90;;;;;;5070057;28;20454;-79
2022/04/05 12:53:00;;;;;;;2.90;1.90;;;10.20;99.90;;;;;;5055882;28;20570;-80
2022/04/05 12:55:30;;;;;;;2.37;2.17;;;10.10;99.90;;;;;;5054133;28;20445;-80
2022/04/05 12:57:58;;;;;;;2.60;2.40;;;10.00;99.90;;;;;;5061253;28;20441;-79
2022/04/05 13:00:30;;;;;;;2.60;2.30;;;10.10;99.90;;;;;;5068596;28;20456;-80
2022/04/05 13:03:09;;;;;;;2.93;2.17;;;10.10;99.90;;;;;;5068241;28;20478;-79
2022/04/05 13:08:34;;;;;;;3.20;2.43;;;10.30;99.90;;;;;;5070692;28;20465;-79
2022/04/05 13:11:22;;;;;;;1.60;1.50;;;10.40;99.90;;;;;;5064942;28;20526;-80
2022/04/05 13:13:50;;;;;;;2.30;2.07;;;10.50;99.90;;;;;;5068624;28;20457;-79
2022/04/05 13:16:26;;;;;;;2.40;1.90;;;10.60;99.90;;;;;;5063934;28;20762;-80
2022/04/05 13:19:05;;;;;;;4.50;2.10;;;10.70;99.90;;;;;;5075299;28;20860;-79